sensor_id;sensor_type;location;lat;lon;timestamp;temperature;humidity
22682;DHT22;11508;50.856;4.380;2024-02-15T00:00:52;13.60;99.90
22682;DHT22;11508;50.856;4.380;2024-02-15T00:03:20;13.50;99.90
22682;DHT22;11508;50.856;4.380;2024-02-15T00:05:46;13.50;99.90
22682;DHT22;11508;50.856;4.380;2024-02-15T00:08:12;13.50;99.90
22682;DHT22;11508;50.856;4.380;2024-02-15T00:10:38;13.40;99.90
22682;DHT22;11508;50.856;4.380;2024-02-15T00:13:04;13.50;99.90
22682;DHT22;11508;50.856;4.380;2024-02-15T00:15:32;13.40;99.90
22682;DHT22;11508;50.856;4.380;2024-02-15T00:18:00;13.40;99.90
22682;DHT22;11508;50.856;4.380;2024-02-15T00:20:25;13.40;99.90
22682;DHT22;11508;50.856;4.380;2024-02-15T00:22:51;13.40;99.90
22682;DHT22;11508;50.856;4.380;2024-02-15T00:25:18;13.40;99.90
22682;DHT22;11508;50.856;4.380;2024-02-15T00:27:45;13.50;99.90
22682;DHT22;11508;50.856;4.380;2024-02-15T00:30:11;13.40;99.90
22682;DHT22;11508;50.856;4.380;2024-02-15T00:32:37;13.50;99.90
22682;DHT22;11508;50.856;4.380;2024-02-15T00:35:04;13.50;99.90
22682;DHT22;11508;50.856;4.380;2024-02-15T00:37:35;13.50;99.90
22682;DHT22;11508;50.856;4.380;2024-02-15T00:40:02;13.50;99.90
22682;DHT22;11508;50.856;4.380;2024-02-15T00:42:29;13.60;99.90
22682;DHT22;11508;50.856;4.380;2024-02-15T00:44:57;13.60;99.90
22682;DHT22;11508;50.856;4.380;2024-02-15T00:47:23;13.50;99.90
22682;DHT22;11508;50.856;4.380;2024-02-15T00:49:49;13.60;99.90
22682;DHT22;11508;50.856;4.380;2024-02-15T00:52:16;13.60;99.90
22682;DHT22;11508;50.856;4.380;2024-02-15T00:54:44;13.50;99.90
22682;DHT22;11508;50.856;4.380;2024-02-15T00:57:10;13.50;99.90
22682;DHT22;11508;50.856;4.380;2024-02-15T00:59:35;13.60;99.90
22682;DHT22;11508;50.856;4.380;2024-02-15T01:02:01;13.70;99.90
22682;DHT22;11508;50.856;4.380;2024-02-15T01:04:28;13.60;99.90
22682;DHT22;11508;50.856;4.380;2024-02-15T01:06:54;13.70;99.90
22682;DHT22;11508;50.856;4.380;2024-02-15T01:09:19;13.60;99.90
22682;DHT22;11508;50.856;4.380;2024-02-15T01:11:45;13.60;99.90
22682;DHT22;11508;50.856;4.380;2024-02-15T01:14:11;13.60;99.90
22682;DHT22;11508;50.856;4.380;2024-02-15T01:16:37;13.60;99.90
22682;DHT22;11508;50.856;4.380;2024-02-15T01:19:03;13.60;99.90
22682;DHT22;11508;50.856;4.380;2024-02-15T01:21:29;13.60;99.90
22682;DHT22;11508;50.856;4.380;2024-02-15T01:23:55;13.60;99.90
22682;DHT22;11508;50.856;4.380;2024-02-15T01:26:21;13.60;99.90
22682;DHT22;11508;50.856;4.380;2024-02-15T01:28:47;13.60;99.90
22682;DHT22;11508;50.856;4.380;2024-02-15T01:31:13;13.60;99.90
22682;DHT22;11508;50.856;4.380;2024-02-15T01:33:43;13.80;99.90
22682;DHT22;11508;50.856;4.380;2024-02-15T01:36:08;13.70;99.90
22682;DHT22;11508;50.856;4.380;2024-02-15T01:38:38;13.60;99.90
22682;DHT22;11508;50.856;4.380;2024-02-15T01:41:04;13.50;99.90
22682;DHT22;11508;50.856;4.380;2024-02-15T01:43:30;13.50;99.90
22682;DHT22;11508;50.856;4.380;2024-02-15T01:45:56;13.50;99.90
22682;DHT22;11508;50.856;4.380;2024-02-15T01:48:24;13.50;99.90
22682;DHT22;11508;50.856;4.380;2024-02-15T01:50:51;13.40;99.90
22682;DHT22;11508;50.856;4.380;2024-02-15T01:53:17;13.40;99.90
22682;DHT22;11508;50.856;4.380;2024-02-15T01:55:43;13.40;99.90
22682;DHT22;11508;50.856;4.380;2024-02-15T01:58:09;13.30;99.90
22682;DHT22;11508;50.856;4.380;2024-02-15T02:00:36;13.40;99.90
22682;DHT22;11508;50.856;4.380;2024-02-15T02:03:02;13.50;99.90
22682;DHT22;11508;50.856;4.380;2024-02-15T02:05:28;13.50;99.90
22682;DHT22;11508;50.856;4.380;2024-02-15T02:07:57;13.50;99.90
22682;DHT22;11508;50.856;4.380;2024-02-15T02:10:25;13.60;99.90
22682;DHT22;11508;50.856;4.380;2024-02-15T02:12:52;13.70;99.90
22682;DHT22;11508;50.856;4.380;2024-02-15T02:15:18;13.70;99.90
22682;DHT22;11508;50.856;4.380;2024-02-15T02:17:49;13.60;99.90
22682;DHT22;11508;50.856;4.380;2024-02-15T02:20:16;13.50;99.90
22682;DHT22;11508;50.856;4.380;2024-02-15T02:22:45;13.40;99.90
22682;DHT22;11508;50.856;4.380;2024-02-15T02:25:12;13.40;99.90
22682;DHT22;11508;50.856;4.380;2024-02-15T02:27:39;13.40;99.90
22682;DHT22;11508;50.856;4.380;2024-02-15T02:30:11;13.40;99.90
22682;DHT22;11508;50.856;4.380;2024-02-15T02:32:41;13.30;99.90
22682;DHT22;11508;50.856;4.380;2024-02-15T02:35:07;13.40;99.90
22682;DHT22;11508;50.856;4.380;2024-02-15T02:37:33;13.40;99.90
22682;DHT22;11508;50.856;4.380;2024-02-15T02:40:03;13.40;99.90
22682;DHT22;11508;50.856;4.380;2024-02-15T02:42:29;13.40;99.90
22682;DHT22;11508;50.856;4.380;2024-02-15T02:44:55;13.50;99.90
22682;DHT22;11508;50.856;4.380;2024-02-15T02:47:20;13.50;99.90
22682;DHT22;11508;50.856;4.380;2024-02-15T02:49:47;13.60;99.90
22682;DHT22;11508;50.856;4.380;2024-02-15T02:52:12;13.40;99.90
22682;DHT22;11508;50.856;4.380;2024-02-15T02:54:38;13.40;99.90
22682;DHT22;11508;50.856;4.380;2024-02-15T02:57:03;13.50;99.90
22682;DHT22;11508;50.856;4.380;2024-02-15T02:59:32;13.50;99.90
22682;DHT22;11508;50.856;4.380;2024-02-15T03:01:58;13.40;99.90
22682;DHT22;11508;50.856;4.380;2024-02-15T03:04:24;13.40;99.90
22682;DHT22;11508;50.856;4.380;2024-02-15T03:06:49;13.30;99.90
22682;DHT22;11508;50.856;4.380;2024-02-15T03:09:16;13.20;99.90
22682;DHT22;11508;50.856;4.380;2024-02-15T03:11:42;13.20;99.90
22682;DHT22;11508;50.856;4.380;2024-02-15T03:14:08;13.10;99.90
22682;DHT22;11508;50.856;4.380;2024-02-15T03:16:33;13.10;99.90
22682;DHT22;11508;50.856;4.380;2024-02-15T03:19:00;13.10;99.90
22682;DHT22;11508;50.856;4.380;2024-02-15T03:21:28;13.10;99.90
22682;DHT22;11508;50.856;4.380;2024-02-15T03:23:54;13.20;99.90
22682;DHT22;11508;50.856;4.380;2024-02-15T03:26:29;13.20;99.90
22682;DHT22;11508;50.856;4.380;2024-02-15T03:28:59;13.20;99.90
22682;DHT22;11508;50.856;4.380;2024-02-15T03:31:24;13.20;99.90
22682;DHT22;11508;50.856;4.380;2024-02-15T03:33:50;13.20;99.90
22682;DHT22;11508;50.856;4.380;2024-02-15T03:36:16;13.30;99.90
22682;DHT22;11508;50.856;4.380;2024-02-15T03:38:45;13.20;99.90
22682;DHT22;11508;50.856;4.380;2024-02-15T03:41:12;13.10;99.90
22682;DHT22;11508;50.856;4.380;2024-02-15T03:43:37;13.10;99.90
22682;DHT22;11508;50.856;4.380;2024-02-15T03:46:04;13.20;99.90
22682;DHT22;11508;50.856;4.380;2024-02-15T03:48:30;13.20;99.90
22682;DHT22;11508;50.856;4.380;2024-02-15T03:50:57;13.20;99.90
22682;DHT22;11508;50.856;4.380;2024-02-15T03:53:24;13.10;99.90
22682;DHT22;11508;50.856;4.380;2024-02-15T03:55:49;13.10;99.90
22682;DHT22;11508;50.856;4.380;2024-02-15T03:58:19;13.10;99.90
22682;DHT22;11508;50.856;4.380;2024-02-15T04:00:45;13.10;99.90
22682;DHT22;11508;50.856;4.380;2024-02-15T04:03:12;13.10;99.90
22682;DHT22;11508;50.856;4.380;2024-02-15T04:05:38;13.10;99.90
22682;DHT22;11508;50.856;4.380;2024-02-15T04:08:05;13.00;99.90
22682;DHT22;11508;50.856;4.380;2024-02-15T04:10:33;12.90;99.90
22682;DHT22;11508;50.856;4.380;2024-02-15T04:12:59;12.80;99.90
22682;DHT22;11508;50.856;4.380;2024-02-15T04:15:25;12.70;99.90
22682;DHT22;11508;50.856;4.380;2024-02-15T04:17:51;12.60;99.90
22682;DHT22;11508;50.856;4.380;2024-02-15T04:20:22;12.50;99.90
22682;DHT22;11508;50.856;4.380;2024-02-15T04:22:48;12.40;99.90
22682;DHT22;11508;50.856;4.380;2024-02-15T04:25:15;12.40;99.90
22682;DHT22;11508;50.856;4.380;2024-02-15T04:27:44;12.40;99.90
22682;DHT22;11508;50.856;4.380;2024-02-15T04:30:11;12.30;99.90
22682;DHT22;11508;50.856;4.380;2024-02-15T04:32:37;12.30;99.90
22682;DHT22;11508;50.856;4.380;2024-02-15T04:35:03;12.40;99.90
22682;DHT22;11508;50.856;4.380;2024-02-15T04:37:30;12.40;99.90
22682;DHT22;11508;50.856;4.380;2024-02-15T04:39:58;12.40;99.90
22682;DHT22;11508;50.856;4.380;2024-02-15T04:42:31;12.50;99.90
22682;DHT22;11508;50.856;4.380;2024-02-15T04:45:00;12.40;99.90
22682;DHT22;11508;50.856;4.380;2024-02-15T04:47:26;12.50;99.90
22682;DHT22;11508;50.856;4.380;2024-02-15T04:49:52;12.50;99.90
22682;DHT22;11508;50.856;4.380;2024-02-15T04:52:17;12.50;99.90
22682;DHT22;11508;50.856;4.380;2024-02-15T04:54:43;12.50;99.90
22682;DHT22;11508;50.856;4.380;2024-02-15T04:57:09;12.70;99.90
22682;DHT22;11508;50.856;4.380;2024-02-15T04:59:37;12.70;99.90
22682;DHT22;11508;50.856;4.380;2024-02-15T05:02:03;12.80;99.90
22682;DHT22;11508;50.856;4.380;2024-02-15T05:04:29;12.80;99.90
22682;DHT22;11508;50.856;4.380;2024-02-15T05:06:55;12.80;99.90
22682;DHT22;11508;50.856;4.380;2024-02-15T05:09:21;12.80;99.90
22682;DHT22;11508;50.856;4.380;2024-02-15T05:11:48;12.80;99.90
22682;DHT22;11508;50.856;4.380;2024-02-15T05:14:14;12.80;99.90
22682;DHT22;11508;50.856;4.380;2024-02-15T05:16:45;12.90;99.90
22682;DHT22;11508;50.856;4.380;2024-02-15T05:19:15;12.90;99.90
22682;DHT22;11508;50.856;4.380;2024-02-15T05:21:42;12.90;99.90
22682;DHT22;11508;50.856;4.380;2024-02-15T05:24:14;12.90;99.90
22682;DHT22;11508;50.856;4.380;2024-02-15T05:26:40;12.90;99.90
22682;DHT22;11508;50.856;4.380;2024-02-15T05:29:08;13.00;99.90
22682;DHT22;11508;50.856;4.380;2024-02-15T05:31:35;13.00;99.90
22682;DHT22;11508;50.856;4.380;2024-02-15T05:34:05;13.00;99.90
22682;DHT22;11508;50.856;4.380;2024-02-15T05:36:32;13.10;99.90
22682;DHT22;11508;50.856;4.380;2024-02-15T05:38:59;13.10;99.90
22682;DHT22;11508;50.856;4.380;2024-02-15T05:41:25;13.10;99.90
22682;DHT22;11508;50.856;4.380;2024-02-15T05:43:51;13.10;99.90
22682;DHT22;11508;50.856;4.380;2024-02-15T05:46:19;13.10;99.90
22682;DHT22;11508;50.856;4.380;2024-02-15T05:48:49;13.20;99.90
22682;DHT22;11508;50.856;4.380;2024-02-15T05:51:14;13.30;99.90
22682;DHT22;11508;50.856;4.380;2024-02-15T05:53:41;13.40;99.90
22682;DHT22;11508;50.856;4.380;2024-02-15T05:56:08;13.40;99.90
22682;DHT22;11508;50.856;4.380;2024-02-15T05:58:34;13.50;99.90
22682;DHT22;11508;50.856;4.380;2024-02-15T06:01:01;13.50;99.90
22682;DHT22;11508;50.856;4.380;2024-02-15T06:03:28;13.50;99.90
22682;DHT22;11508;50.856;4.380;2024-02-15T06:05:54;13.60;99.90
22682;DHT22;11508;50.856;4.380;2024-02-15T06:08:27;13.60;99.90
22682;DHT22;11508;50.856;4.380;2024-02-15T06:10:55;13.70;99.90
22682;DHT22;11508;50.856;4.380;2024-02-15T06:13:23;13.70;99.90
22682;DHT22;11508;50.856;4.380;2024-02-15T06:15:50;13.90;99.90
22682;DHT22;11508;50.856;4.380;2024-02-15T06:18:25;13.80;99.90
22682;DHT22;11508;50.856;4.380;2024-02-15T06:20:53;13.70;99.90
22682;DHT22;11508;50.856;4.380;2024-02-15T06:23:19;13.70;99.90
22682;DHT22;11508;50.856;4.380;2024-02-15T06:25:46;13.80;99.90
22682;DHT22;11508;50.856;4.380;2024-02-15T06:28:16;13.70;99.90
22682;DHT22;11508;50.856;4.380;2024-02-15T06:31:07;13.70;99.90
22682;DHT22;11508;50.856;4.380;2024-02-15T06:33:52;13.80;99.90
22682;DHT22;11508;50.856;4.380;2024-02-15T06:36:45;13.70;99.90
22682;DHT22;11508;50.856;4.380;2024-02-15T06:39:30;13.70;99.90
22682;DHT22;11508;50.856;4.380;2024-02-15T06:45:42;13.70;99.90
22682;DHT22;11508;50.856;4.380;2024-02-15T06:51:50;13.70;99.80
22682;DHT22;11508;50.856;4.380;2024-02-15T06:57:53;13.70;99.90
22682;DHT22;11508;50.856;4.380;2024-02-15T07:00:20;13.80;97.00
22682;DHT22;11508;50.856;4.380;2024-02-15T07:02:46;13.70;98.90
22682;DHT22;11508;50.856;4.380;2024-02-15T07:05:14;13.70;99.70
22682;DHT22;11508;50.856;4.380;2024-02-15T07:07:43;13.80;98.30
22682;DHT22;11508;50.856;4.380;2024-02-15T07:10:09;13.70;98.40
22682;DHT22;11508;50.856;4.380;2024-02-15T07:12:36;13.80;98.50
22682;DHT22;11508;50.856;4.380;2024-02-15T07:15:28;13.80;95.10
22682;DHT22;11508;50.856;4.380;2024-02-15T07:21:35;13.80;96.00
22682;DHT22;11508;50.856;4.380;2024-02-15T07:27:34;13.80;96.70
22682;DHT22;11508;50.856;4.380;2024-02-15T07:33:27;13.80;94.20
22682;DHT22;11508;50.856;4.380;2024-02-15T07:35:54;13.80;94.50
22682;DHT22;11508;50.856;4.380;2024-02-15T07:38:22;13.80;95.90
22682;DHT22;11508;50.856;4.380;2024-02-15T07:40:51;13.90;93.20
22682;DHT22;11508;50.856;4.380;2024-02-15T07:46:39;13.90;95.00
22682;DHT22;11508;50.856;4.380;2024-02-15T07:49:05;13.90;91.10
22682;DHT22;11508;50.856;4.380;2024-02-15T07:51:32;14.00;99.90
22682;DHT22;11508;50.856;4.380;2024-02-15T07:53:58;14.00;1.00
22682;DHT22;11508;50.856;4.380;2024-02-15T07:56:23;14.00;99.90
22682;DHT22;11508;50.856;4.380;2024-02-15T07:58:54;14.10;99.90
22682;DHT22;11508;50.856;4.380;2024-02-15T08:01:20;14.20;72.30
22682;DHT22;11508;50.856;4.380;2024-02-15T08:03:46;14.20;1.00
22682;DHT22;11508;50.856;4.380;2024-02-15T08:09:34;14.20;99.90
22682;DHT22;11508;50.856;4.380;2024-02-15T08:12:01;14.20;99.90
22682;DHT22;11508;50.856;4.380;2024-02-15T08:14:28;14.20;99.90
22682;DHT22;11508;50.856;4.380;2024-02-15T08:16:54;14.20;99.90
22682;DHT22;11508;50.856;4.380;2024-02-15T08:19:21;14.30;99.90
22682;DHT22;11508;50.856;4.380;2024-02-15T08:21:48;14.40;1.00
22682;DHT22;11508;50.856;4.380;2024-02-15T08:24:16;14.40;99.90
22682;DHT22;11508;50.856;4.380;2024-02-15T08:26:42;14.40;99.90
22682;DHT22;11508;50.856;4.380;2024-02-15T08:29:08;14.50;1.00
22682;DHT22;11508;50.856;4.380;2024-02-15T08:31:39;14.40;24.40
22682;DHT22;11508;50.856;4.380;2024-02-15T08:34:05;14.40;99.90
22682;DHT22;11508;50.856;4.380;2024-02-15T08:36:36;14.40;99.90
22682;DHT22;11508;50.856;4.380;2024-02-15T08:39:02;14.50;99.90
22682;DHT22;11508;50.856;4.380;2024-02-15T08:41:29;14.50;99.90
22682;DHT22;11508;50.856;4.380;2024-02-15T08:43:55;14.70;99.90
22682;DHT22;11508;50.856;4.380;2024-02-15T08:46:23;14.80;1.00
22682;DHT22;11508;50.856;4.380;2024-02-15T08:48:52;14.70;1.00
22682;DHT22;11508;50.856;4.380;2024-02-15T08:51:18;14.70;1.00
22682;DHT22;11508;50.856;4.380;2024-02-15T08:53:46;14.70;99.90
22682;DHT22;11508;50.856;4.380;2024-02-15T08:56:12;14.90;99.90
22682;DHT22;11508;50.856;4.380;2024-02-15T08:58:38;15.00;43.30
22682;DHT22;11508;50.856;4.380;2024-02-15T09:01:06;15.10;99.90
22682;DHT22;11508;50.856;4.380;2024-02-15T09:03:35;15.40;99.90
22682;DHT22;11508;50.856;4.380;2024-02-15T09:06:01;15.50;1.00
22682;DHT22;11508;50.856;4.380;2024-02-15T09:08:31;15.30;97.20
22682;DHT22;11508;50.856;4.380;2024-02-15T09:11:06;15.20;1.00
22682;DHT22;11508;50.856;4.380;2024-02-15T09:13:32;15.10;99.90
22682;DHT22;11508;50.856;4.380;2024-02-15T09:16:04;15.10;1.00
22682;DHT22;11508;50.856;4.380;2024-02-15T09:18:30;15.10;99.90
22682;DHT22;11508;50.856;4.380;2024-02-15T09:20:59;15.00;99.90
22682;DHT22;11508;50.856;4.380;2024-02-15T09:23:25;15.10;99.90
22682;DHT22;11508;50.856;4.380;2024-02-15T09:25:51;15.00;69.00
22682;DHT22;11508;50.856;4.380;2024-02-15T09:28:22;15.20;99.90
22682;DHT22;11508;50.856;4.380;2024-02-15T09:30:51;15.20;1.00
22682;DHT22;11508;50.856;4.380;2024-02-15T09:33:20;15.20;99.90
22682;DHT22;11508;50.856;4.380;2024-02-15T09:35:48;15.30;99.90
22682;DHT22;11508;50.856;4.380;2024-02-15T09:38:14;15.30;99.90
22682;DHT22;11508;50.856;4.380;2024-02-15T09:40:45;15.40;99.90
22682;DHT22;11508;50.856;4.380;2024-02-15T09:43:14;15.50;99.90
22682;DHT22;11508;50.856;4.380;2024-02-15T09:45:45;15.60;26.70
22682;DHT22;11508;50.856;4.380;2024-02-15T09:48:15;15.50;59.60
22682;DHT22;11508;50.856;4.380;2024-02-15T09:50:57;15.40;99.90
22682;DHT22;11508;50.856;4.380;2024-02-15T09:53:26;15.50;99.90
22682;DHT22;11508;50.856;4.380;2024-02-15T09:55:54;15.90;99.90
22682;DHT22;11508;50.856;4.380;2024-02-15T09:58:23;16.10;99.90
22682;DHT22;11508;50.856;4.380;2024-02-15T10:01:03;16.20;99.90
22682;DHT22;11508;50.856;4.380;2024-02-15T10:03:39;16.30;99.90
22682;DHT22;11508;50.856;4.380;2024-02-15T10:09:47;15.90;99.90
22682;DHT22;11508;50.856;4.380;2024-02-15T10:12:13;16.10;99.90
22682;DHT22;11508;50.856;4.380;2024-02-15T10:14:38;16.20;99.90
22682;DHT22;11508;50.856;4.380;2024-02-15T10:17:54;16.20;99.90
22682;DHT22;11508;50.856;4.380;2024-02-15T10:20:20;16.00;99.90
22682;DHT22;11508;50.856;4.380;2024-02-15T10:22:48;16.10;99.90
22682;DHT22;11508;50.856;4.380;2024-02-15T10:28:38;16.30;57.90
22682;DHT22;11508;50.856;4.380;2024-02-15T10:31:07;16.30;21.50
22682;DHT22;11508;50.856;4.380;2024-02-15T10:33:37;16.50;92.20
22682;DHT22;11508;50.856;4.380;2024-02-15T10:36:11;16.60;1.00
22682;DHT22;11508;50.856;4.380;2024-02-15T10:41:51;17.10;99.90
22682;DHT22;11508;50.856;4.380;2024-02-15T10:44:20;17.00;99.90
22682;DHT22;11508;50.856;4.380;2024-02-15T10:46:48;17.10;99.90
22682;DHT22;11508;50.856;4.380;2024-02-15T10:49:21;17.10;99.90
22682;DHT22;11508;50.856;4.380;2024-02-15T10:52:18;17.30;99.90
22682;DHT22;11508;50.856;4.380;2024-02-15T10:54:58;17.40;99.90
22682;DHT22;11508;50.856;4.380;2024-02-15T10:57:29;17.10;99.90
22682;DHT22;11508;50.856;4.380;2024-02-15T11:00:33;17.20;99.90
22682;DHT22;11508;50.856;4.380;2024-02-15T11:06:38;17.20;99.40
22682;DHT22;11508;50.856;4.380;2024-02-15T11:12:31;17.30;11.60
22682;DHT22;11508;50.856;4.380;2024-02-15T11:14:56;17.40;8.70
22682;DHT22;11508;50.856;4.380;2024-02-15T11:20:09;17.20;1.00
22682;DHT22;11508;50.856;4.380;2024-02-15T11:22:37;17.10;1.00
22682;DHT22;11508;50.856;4.380;2024-02-15T11:34:43;17.60;1.00
22682;DHT22;11508;50.856;4.380;2024-02-15T11:37:09;17.40;1.00
22682;DHT22;11508;50.856;4.380;2024-02-15T11:49:15;16.90;1.00
22682;DHT22;11508;50.856;4.380;2024-02-15T11:55:08;17.50;1.00
22682;DHT22;11508;50.856;4.380;2024-02-15T12:12:03;17.60;99.90
22682;DHT22;11508;50.856;4.380;2024-02-15T12:21:56;17.30;99.90
22682;DHT22;11508;50.856;4.380;2024-02-15T12:38:04;17.70;99.90
22682;DHT22;11508;50.856;4.380;2024-02-15T12:40:35;17.90;99.90
22682;DHT22;11508;50.856;4.380;2024-02-15T12:47:08;17.60;99.90
22682;DHT22;11508;50.856;4.380;2024-02-15T12:52:56;18.00;99.90
22682;DHT22;11508;50.856;4.380;2024-02-15T12:58:56;18.00;99.90
22682;DHT22;11508;50.856;4.380;2024-02-15T13:04:44;18.10;99.90
22682;DHT22;11508;50.856;4.380;2024-02-15T13:11:00;18.20;99.90
22682;DHT22;11508;50.856;4.380;2024-02-15T13:17:05;18.20;73.00
22682;DHT22;11508;50.856;4.380;2024-02-15T13:19:31;18.40;41.10
22682;DHT22;11508;50.856;4.380;2024-02-15T13:21:59;18.60;14.60
22682;DHT22;11508;50.856;4.380;2024-02-15T13:24:27;18.60;10.80
22682;DHT22;11508;50.856;4.380;2024-02-15T13:26:53;19.00;1.00
22682;DHT22;11508;50.856;4.380;2024-02-15T13:29:19;19.40;1.00
22682;DHT22;11508;50.856;4.380;2024-02-15T13:31:46;19.80;1.00
22682;DHT22;11508;50.856;4.380;2024-02-15T13:34:12;20.30;1.00
22682;DHT22;11508;50.856;4.380;2024-02-15T13:47:11;19.80;99.90
22682;DHT22;11508;50.856;4.380;2024-02-15T13:53:32;19.30;99.90
22682;DHT22;11508;50.856;4.380;2024-02-15T14:06:13;18.50;99.90
22682;DHT22;11508;50.856;4.380;2024-02-15T14:08:41;18.30;99.90
22682;DHT22;11508;50.856;4.380;2024-02-15T14:11:11;18.40;99.90
22682;DHT22;11508;50.856;4.380;2024-02-15T14:13:36;18.30;99.90
22682;DHT22;11508;50.856;4.380;2024-02-15T14:16:02;18.20;99.90
22682;DHT22;11508;50.856;4.380;2024-02-15T14:18:28;18.40;99.90
22682;DHT22;11508;50.856;4.380;2024-02-15T14:20:54;18.30;99.90
22682;DHT22;11508;50.856;4.380;2024-02-15T14:23:20;18.40;99.90
22682;DHT22;11508;50.856;4.380;2024-02-15T14:25:46;18.50;99.90
22682;DHT22;11508;50.856;4.380;2024-02-15T14:28:11;18.50;99.90
22682;DHT22;11508;50.856;4.380;2024-02-15T14:30:39;18.60;99.90
22682;DHT22;11508;50.856;4.380;2024-02-15T14:33:24;18.40;99.90
22682;DHT22;11508;50.856;4.380;2024-02-15T14:35:50;18.20;99.90
22682;DHT22;11508;50.856;4.380;2024-02-15T14:38:18;18.20;99.90
22682;DHT22;11508;50.856;4.380;2024-02-15T14:40:47;18.40;99.90
22682;DHT22;11508;50.856;4.380;2024-02-15T14:43:20;18.50;99.90
22682;DHT22;11508;50.856;4.380;2024-02-15T14:45:47;18.60;99.90
22682;DHT22;11508;50.856;4.380;2024-02-15T14:48:14;18.80;99.90
22682;DHT22;11508;50.856;4.380;2024-02-15T14:50:43;18.70;99.90
22682;DHT22;11508;50.856;4.380;2024-02-15T14:53:09;18.90;99.90
22682;DHT22;11508;50.856;4.380;2024-02-15T14:55:38;18.90;99.90
22682;DHT22;11508;50.856;4.380;2024-02-15T14:58:06;19.00;99.90
22682;DHT22;11508;50.856;4.380;2024-02-15T15:00:33;19.00;99.90
22682;DHT22;11508;50.856;4.380;2024-02-15T15:02:59;19.00;99.90
22682;DHT22;11508;50.856;4.380;2024-02-15T15:05:25;18.80;99.90
22682;DHT22;11508;50.856;4.380;2024-02-15T15:08:09;18.70;99.90
22682;DHT22;11508;50.856;4.380;2024-02-15T15:10:55;18.40;99.90
22682;DHT22;11508;50.856;4.380;2024-02-15T15:17:02;18.40;99.90
22682;DHT22;11508;50.856;4.380;2024-02-15T15:22:50;18.10;99.90
22682;DHT22;11508;50.856;4.380;2024-02-15T15:25:16;18.20;99.90
22682;DHT22;11508;50.856;4.380;2024-02-15T15:27:41;18.20;99.90
22682;DHT22;11508;50.856;4.380;2024-02-15T15:30:07;18.10;99.90
22682;DHT22;11508;50.856;4.380;2024-02-15T15:32:33;18.20;99.90
22682;DHT22;11508;50.856;4.380;2024-02-15T15:34:59;18.20;99.90
22682;DHT22;11508;50.856;4.380;2024-02-15T15:37:26;18.00;99.90
22682;DHT22;11508;50.856;4.380;2024-02-15T15:39:51;18.00;99.90
22682;DHT22;11508;50.856;4.380;2024-02-15T15:42:19;18.10;99.90
22682;DHT22;11508;50.856;4.380;2024-02-15T15:44:45;17.90;99.90
22682;DHT22;11508;50.856;4.380;2024-02-15T15:47:12;17.80;99.90
22682;DHT22;11508;50.856;4.380;2024-02-15T15:49:38;17.70;1.00
22682;DHT22;11508;50.856;4.380;2024-02-15T15:52:04;17.70;1.00
22682;DHT22;11508;50.856;4.380;2024-02-15T15:54:32;17.60;1.00
22682;DHT22;11508;50.856;4.380;2024-02-15T15:56:58;17.50;1.00
22682;DHT22;11508;50.856;4.380;2024-02-15T15:59:25;17.50;1.00
22682;DHT22;11508;50.856;4.380;2024-02-15T16:01:51;17.60;1.00
22682;DHT22;11508;50.856;4.380;2024-02-15T16:04:17;17.50;1.00
22682;DHT22;11508;50.856;4.380;2024-02-15T16:06:42;17.50;1.00
22682;DHT22;11508;50.856;4.380;2024-02-15T16:09:09;17.40;1.00
22682;DHT22;11508;50.856;4.380;2024-02-15T16:11:36;17.40;1.00
22682;DHT22;11508;50.856;4.380;2024-02-15T16:14:02;17.30;1.00
22682;DHT22;11508;50.856;4.380;2024-02-15T16:16:31;17.30;1.00
22682;DHT22;11508;50.856;4.380;2024-02-15T16:18:56;17.30;1.00
22682;DHT22;11508;50.856;4.380;2024-02-15T16:21:23;17.10;1.00
22682;DHT22;11508;50.856;4.380;2024-02-15T16:23:49;17.20;1.00
22682;DHT22;11508;50.856;4.380;2024-02-15T16:26:15;16.90;1.00
22682;DHT22;11508;50.856;4.380;2024-02-15T16:28:41;16.70;1.00
22682;DHT22;11508;50.856;4.380;2024-02-15T16:31:07;16.70;1.00
22682;DHT22;11508;50.856;4.380;2024-02-15T16:33:33;16.80;1.00
22682;DHT22;11508;50.856;4.380;2024-02-15T16:35:59;16.80;1.00
22682;DHT22;11508;50.856;4.380;2024-02-15T16:38:24;16.70;1.00
22682;DHT22;11508;50.856;4.380;2024-02-15T16:40:52;16.70;1.00
22682;DHT22;11508;50.856;4.380;2024-02-15T16:43:19;16.60;1.00
22682;DHT22;11508;50.856;4.380;2024-02-15T16:45:45;16.60;5.40
22682;DHT22;11508;50.856;4.380;2024-02-15T16:48:12;16.70;1.00
22682;DHT22;11508;50.856;4.380;2024-02-15T16:50:38;16.70;1.00
22682;DHT22;11508;50.856;4.380;2024-02-15T16:53:07;16.70;1.00
22682;DHT22;11508;50.856;4.380;2024-02-15T16:55:34;16.70;9.40
22682;DHT22;11508;50.856;4.380;2024-02-15T16:58:01;16.60;19.20
22682;DHT22;11508;50.856;4.380;2024-02-15T17:00:33;16.70;23.20
22682;DHT22;11508;50.856;4.380;2024-02-15T17:02:59;16.60;6.60
22682;DHT22;11508;50.856;4.380;2024-02-15T17:05:24;16.50;18.10
22682;DHT22;11508;50.856;4.380;2024-02-15T17:07:52;16.50;46.20
22682;DHT22;11508;50.856;4.380;2024-02-15T17:10:22;16.20;78.90
22682;DHT22;11508;50.856;4.380;2024-02-15T17:12:50;16.20;99.90
22682;DHT22;11508;50.856;4.380;2024-02-15T17:15:18;16.20;99.90
22682;DHT22;11508;50.856;4.380;2024-02-15T17:17:44;16.10;99.90
22682;DHT22;11508;50.856;4.380;2024-02-15T17:20:11;16.10;99.90
22682;DHT22;11508;50.856;4.380;2024-02-15T17:22:41;15.90;99.90
22682;DHT22;11508;50.856;4.380;2024-02-15T17:25:08;15.90;99.90
22682;DHT22;11508;50.856;4.380;2024-02-15T17:27:39;15.90;99.90
22682;DHT22;11508;50.856;4.380;2024-02-15T17:30:09;15.80;99.90
22682;DHT22;11508;50.856;4.380;2024-02-15T17:32:37;15.80;99.90
22682;DHT22;11508;50.856;4.380;2024-02-15T17:35:05;15.90;99.90
22682;DHT22;11508;50.856;4.380;2024-02-15T17:37:31;15.90;99.90
22682;DHT22;11508;50.856;4.380;2024-02-15T17:39:57;16.00;99.90
22682;DHT22;11508;50.856;4.380;2024-02-15T17:42:23;15.80;99.90
22682;DHT22;11508;50.856;4.380;2024-02-15T17:44:48;15.70;99.90
22682;DHT22;11508;50.856;4.380;2024-02-15T17:47:15;15.80;99.90
22682;DHT22;11508;50.856;4.380;2024-02-15T17:49:41;15.80;99.90
22682;DHT22;11508;50.856;4.380;2024-02-15T17:52:07;15.90;99.90
22682;DHT22;11508;50.856;4.380;2024-02-15T17:54:34;15.70;99.90
22682;DHT22;11508;50.856;4.380;2024-02-15T17:57:00;15.60;99.90
22682;DHT22;11508;50.856;4.380;2024-02-15T17:59:26;15.60;99.90
22682;DHT22;11508;50.856;4.380;2024-02-15T18:01:51;15.50;99.90
22682;DHT22;11508;50.856;4.380;2024-02-15T18:04:17;15.40;99.90
22682;DHT22;11508;50.856;4.380;2024-02-15T18:06:44;15.30;1.00
22682;DHT22;11508;50.856;4.380;2024-02-15T18:09:10;15.30;1.00
22682;DHT22;11508;50.856;4.380;2024-02-15T18:11:37;15.30;1.00
22682;DHT22;11508;50.856;4.380;2024-02-15T18:14:03;15.40;1.00
22682;DHT22;11508;50.856;4.380;2024-02-15T18:16:28;15.40;1.00